createdAt,value
2022-09-12T00:01:22.911Z,7.50
2022-09-12T00:03:54.641Z,8.13
2022-09-12T00:06:24.968Z,8.20
2022-09-12T00:08:57.099Z,8.15
2022-09-12T00:11:26.135Z,8.25
2022-09-12T00:13:57.374Z,9.32
2022-09-12T00:16:27.454Z,9.73
2022-09-12T00:18:57.078Z,9.18
2022-09-12T00:21:25.238Z,9.25
2022-09-12T00:23:53.952Z,9.30
2022-09-12T00:26:23.064Z,9.30
2022-09-12T00:28:52.027Z,10.15
2022-09-12T00:31:27.245Z,10.20
2022-09-12T00:33:58.556Z,9.82
2022-09-12T00:36:27.849Z,10.48
2022-09-12T00:38:56.279Z,10.63
2022-09-12T00:41:27.365Z,10.77
2022-09-12T00:43:57.189Z,10.80
2022-09-12T00:46:34.205Z,11.48
2022-09-12T00:49:10.309Z,10.85
2022-09-12T00:51:39.708Z,9.98
2022-09-12T00:54:11.616Z,10.80
2022-09-12T00:56:44.557Z,9.77
2022-09-12T00:59:15.600Z,10.25
2022-09-12T01:01:45.793Z,10.10
2022-09-12T01:04:15.366Z,9.88
2022-09-12T01:06:45.650Z,9.88
2022-09-12T01:09:16.762Z,9.00
2022-09-12T01:11:47.143Z,10.20
2022-09-12T01:14:15.613Z,10.45
2022-09-12T01:16:45.128Z,10.50
2022-09-12T01:19:36.862Z,10.70
2022-09-12T01:22:20.220Z,10.80
2022-09-12T01:24:59.138Z,9.73
2022-09-12T01:27:46.068Z,10.38
2022-09-12T01:30:35.006Z,10.50
2022-09-12T01:33:17.571Z,9.90
2022-09-12T01:36:07.326Z,9.82
2022-09-12T01:38:39.915Z,9.55
2022-09-12T01:41:15.371Z,9.63
2022-09-12T01:43:52.064Z,9.07
2022-09-12T01:46:28.051Z,8.30
2022-09-12T01:49:01.430Z,7.63
2022-09-12T01:51:38.342Z,8.63
2022-09-12T01:54:11.042Z,7.45
2022-09-12T01:56:49.796Z,8.13
2022-09-12T01:59:22.574Z,8.40
2022-09-12T02:01:57.073Z,9.27
2022-09-12T02:04:33.960Z,8.93
2022-09-12T02:07:08.095Z,9.38
2022-09-12T02:09:39.502Z,9.55
2022-09-12T02:12:13.148Z,11.13
2022-09-12T02:14:46.565Z,12.25
2022-09-12T02:17:20.273Z,12.73
2022-09-12T02:19:53.328Z,12.50
2022-09-12T02:22:25.217Z,12.80
2022-09-12T02:24:58.269Z,12.48
2022-09-12T02:27:30.205Z,11.75
2022-09-12T02:29:58.151Z,11.48
2022-09-12T02:32:32.686Z,11.27
2022-09-12T02:35:07.004Z,10.15
2022-09-12T02:37:47.156Z,11.02
2022-09-12T02:40:15.886Z,12.25
2022-09-12T02:42:43.988Z,12.43
2022-09-12T02:45:12.454Z,11.98
2022-09-12T02:47:46.667Z,11.10
2022-09-12T02:50:15.346Z,12.25
2022-09-12T02:52:44.833Z,11.75
2022-09-12T02:55:13.055Z,11.63
2022-09-12T02:57:41.311Z,12.43
2022-09-12T03:00:10.752Z,12.18
2022-09-12T03:02:56.796Z,12.75
2022-09-12T03:05:30.421Z,12.60
2022-09-12T03:08:19.011Z,12.95
2022-09-12T03:11:07.118Z,11.02
2022-09-12T03:13:41.855Z,9.80
2022-09-12T03:16:18.158Z,8.43
2022-09-12T03:18:56.914Z,9.18
2022-09-12T03:21:30.062Z,8.80
2022-09-12T03:24:14.456Z,8.93
2022-09-12T03:26:49.550Z,8.82
2022-09-12T03:29:19.292Z,8.52
2022-09-12T03:31:54.223Z,8.57
2022-09-12T03:34:25.007Z,9.10
2022-09-12T03:36:55.359Z,9.77
2022-09-12T03:39:26.534Z,10.15
2022-09-12T03:41:54.925Z,9.48
2022-09-12T03:44:23.315Z,10.27
2022-09-12T03:46:51.427Z,9.38
2022-09-12T03:49:19.401Z,8.52
2022-09-12T03:51:48.760Z,8.85
2022-09-12T03:54:16.736Z,8.05
2022-09-12T03:56:44.622Z,8.70
2022-09-12T03:59:12.614Z,8.45
2022-09-12T04:01:41.730Z,8.13
2022-09-12T04:04:10.200Z,7.70
2022-09-12T04:06:38.295Z,8.52
2022-09-12T04:09:07.757Z,8.60
2022-09-12T04:11:36.690Z,7.95
2022-09-12T04:14:04.697Z,8.63
2022-09-12T04:16:33.385Z,8.63
2022-09-12T04:19:01.428Z,9.65
2022-09-12T04:21:33.776Z,7.75
2022-09-12T04:24:04.140Z,7.90
2022-09-12T04:26:36.400Z,7.78
2022-09-12T04:29:04.459Z,8.25
2022-09-12T04:31:34.376Z,8.60
2022-09-12T04:34:05.469Z,8.50
2022-09-12T04:36:36.466Z,8.50
2022-09-12T04:39:05.883Z,9.10
2022-09-12T04:41:37.170Z,9.77
2022-09-12T04:44:07.738Z,9.85
2022-09-12T04:46:40.717Z,8.88
2022-09-12T04:49:09.001Z,9.00
2022-09-12T04:51:38.510Z,9.07
2022-09-12T04:54:08.258Z,8.95
2022-09-12T04:56:40.675Z,10.27
2022-09-12T04:59:11.117Z,10.07
2022-09-12T05:01:39.293Z,10.60
2022-09-12T05:04:07.292Z,11.13
2022-09-12T05:06:37.344Z,11.10
2022-09-12T05:09:07.066Z,14.98
2022-09-12T05:12:02.513Z,13.05
2022-09-12T05:14:27.248Z,12.77
2022-09-12T05:16:59.851Z,12.48
2022-09-12T05:19:28.248Z,11.00
2022-09-12T05:22:09.771Z,11.90
2022-09-12T05:24:39.541Z,10.43
2022-09-12T05:27:07.620Z,9.82
2022-09-12T05:29:37.017Z,9.63
2022-09-12T05:32:05.273Z,9.98
2022-09-12T05:34:33.256Z,10.80
2022-09-12T05:37:01.233Z,10.93
2022-09-12T05:39:32.228Z,13.43
2022-09-12T05:42:00.196Z,12.25
2022-09-12T05:44:32.241Z,12.68
2022-09-12T05:47:01.687Z,13.38
2022-09-12T05:49:30.293Z,13.52
2022-09-12T05:51:58.299Z,15.63
2022-09-12T05:54:31.326Z,14.20
2022-09-12T05:57:00.079Z,14.70
2022-09-12T05:59:28.494Z,14.30
2022-09-12T06:01:56.555Z,15.50
2022-09-12T06:04:26.507Z,15.70
2022-09-12T06:06:56.525Z,15.40
2022-09-12T06:09:25.669Z,16.20
2022-09-12T06:11:53.582Z,15.00
2022-09-12T06:14:22.402Z,15.27
2022-09-12T06:16:50.628Z,14.50
2022-09-12T06:19:20.092Z,14.25
2022-09-12T06:21:51.639Z,12.40
2022-09-12T06:24:20.645Z,10.38
2022-09-12T06:26:48.799Z,9.48
2022-09-12T06:29:19.493Z,8.30
2022-09-12T06:31:47.671Z,9.35
2022-09-12T06:34:19.585Z,7.70
2022-09-12T06:36:50.284Z,8.45
2022-09-12T06:39:22.195Z,8.98
2022-09-12T06:41:51.379Z,8.63
2022-09-12T06:44:23.895Z,8.32
2022-09-12T06:46:53.671Z,8.00
2022-09-12T06:49:26.066Z,7.80
2022-09-12T06:51:55.577Z,6.97
2022-09-12T06:54:26.570Z,6.35
2022-09-12T06:57:48.374Z,6.18
2022-09-12T07:00:38.888Z,6.05
2022-09-12T07:03:15.756Z,4.70
2022-09-12T07:06:09.677Z,4.40
2022-09-12T07:08:41.653Z,4.22
2022-09-12T07:11:11.750Z,3.75
2022-09-12T07:13:40.450Z,4.22
2022-09-12T07:16:08.914Z,4.30
2022-09-12T07:18:38.610Z,3.92
2022-09-12T07:21:11.674Z,4.22
2022-09-12T07:23:52.333Z,3.75
2022-09-12T07:26:52.571Z,4.90
2022-09-12T07:29:39.292Z,4.95
2022-09-12T07:32:15.956Z,4.35
2022-09-12T07:34:54.195Z,4.53
2022-09-12T07:37:40.635Z,4.90
2022-09-12T07:40:33.187Z,5.68
2022-09-12T07:43:11.358Z,5.57
2022-09-12T07:46:00.550Z,5.75
2022-09-12T07:48:42.245Z,5.78
2022-09-12T07:51:31.262Z,6.18
2022-09-12T07:54:17.489Z,5.80
2022-09-12T07:59:52.801Z,6.18
2022-09-12T08:02:36.167Z,7.15
2022-09-12T08:05:25.889Z,5.75
2022-09-12T08:08:08.196Z,5.45
2022-09-12T08:10:39.831Z,5.45
2022-09-12T08:13:13.598Z,5.90
2022-09-12T08:15:41.690Z,5.35
2022-09-12T08:18:09.947Z,4.80
2022-09-12T08:20:39.938Z,5.50
2022-09-12T08:23:08.472Z,5.25
2022-09-12T08:25:36.540Z,5.38
2022-09-12T08:28:04.582Z,5.10
2022-09-12T08:30:33.936Z,4.80
2022-09-12T08:33:02.044Z,5.50
2022-09-12T08:35:30.214Z,4.78
2022-09-12T08:37:59.309Z,5.07
2022-09-12T08:40:29.212Z,5.05
2022-09-12T08:43:04.363Z,5.30
2022-09-12T08:45:41.670Z,4.72
2022-09-12T08:48:12.908Z,5.30
2022-09-12T08:51:12.674Z,4.90
2022-09-12T08:54:09.433Z,4.70
2022-09-12T08:57:01.541Z,4.85
2022-09-12T09:00:02.232Z,5.00
2022-09-12T09:03:02.772Z,5.22
2022-09-12T09:05:48.242Z,5.05
2022-09-12T09:08:41.791Z,4.53
2022-09-12T09:11:55.450Z,4.32
2022-09-12T09:15:17.005Z,4.28
2022-09-12T09:18:30.462Z,4.40
2022-09-12T09:21:30.709Z,4.38
2022-09-12T09:24:14.881Z,4.13
2022-09-12T09:27:42.807Z,3.85
2022-09-12T09:30:18.132Z,3.38
2022-09-12T09:33:09.341Z,3.78
2022-09-12T09:35:45.256Z,3.92
2022-09-12T09:38:48.630Z,3.88
2022-09-12T09:42:20.723Z,3.60
2022-09-12T09:48:02.009Z,3.60
2022-09-12T09:51:06.702Z,3.97
2022-09-12T09:53:51.115Z,4.20
2022-09-12T09:56:51.597Z,3.80
2022-09-12T09:59:42.625Z,3.78
2022-09-12T10:03:03.554Z,3.72
2022-09-12T10:05:36.166Z,3.40
2022-09-12T10:08:07.314Z,3.63
2022-09-12T10:10:36.764Z,3.75
2022-09-12T10:13:12.156Z,3.58
2022-09-12T10:15:40.204Z,3.53
2022-09-12T10:18:08.225Z,3.50
2022-09-12T10:20:41.684Z,3.45
2022-09-12T10:23:30.286Z,3.42
2022-09-12T10:26:02.495Z,3.45
2022-09-12T10:28:38.124Z,3.10
2022-09-12T10:31:07.906Z,3.13
2022-09-12T10:33:42.330Z,3.28
2022-09-12T10:36:10.906Z,3.22
2022-09-12T10:38:39.097Z,3.22
2022-09-12T10:45:01.406Z,2.80
2022-09-12T10:47:36.493Z,3.15
2022-09-12T10:50:27.410Z,3.00
2022-09-12T10:56:29.737Z,2.85
2022-09-12T11:23:14.066Z,2.67
2022-09-12T11:26:21.033Z,2.60
2022-09-12T11:29:02.289Z,2.78
2022-09-12T11:31:54.779Z,2.53
2022-09-12T11:34:40.584Z,2.35
2022-09-12T11:37:27.928Z,2.20
2022-09-12T11:40:42.644Z,1.90
2022-09-12T11:43:52.804Z,1.90
2022-09-12T11:46:52.318Z,1.70
2022-09-12T11:52:59.796Z,1.63
2022-09-12T11:57:03.595Z,1.92
2022-09-12T12:00:10.850Z,2.00
2022-09-12T12:07:32.000Z,1.90
2022-09-12T12:18:50.627Z,2.25
2022-09-12T12:25:29.671Z,1.90
2022-09-12T12:32:28.349Z,1.90
2022-09-12T12:35:53.628Z,2.00
2022-09-12T13:33:11.130Z,1.17
2022-09-12T13:35:52.894Z,1.13
2022-09-12T13:38:30.675Z,1.40
2022-09-12T13:41:22.258Z,1.17
2022-09-12T13:43:50.778Z,1.10
2022-09-12T13:46:30.199Z,1.15
2022-09-12T13:48:59.767Z,1.13
2022-09-12T13:51:33.222Z,1.13
2022-09-12T13:54:05.391Z,1.20
2022-09-12T13:56:33.527Z,1.23
2022-09-12T13:59:03.178Z,1.10
2022-09-12T14:01:42.676Z,1.10
2022-09-12T14:04:35.488Z,1.20
2022-09-12T15:00:54.288Z,1.00
2022-09-12T15:03:34.864Z,1.30
2022-09-12T15:07:25.538Z,1.00
2022-09-12T15:22:36.632Z,1.20
2022-09-12T15:29:11.475Z,1.00
2022-09-12T15:42:29.167Z,0.85
2022-09-12T16:07:28.480Z,1.05
2022-09-12T16:10:15.720Z,0.93
2022-09-12T16:12:50.325Z,1.10
2022-09-12T16:15:25.862Z,1.20
2022-09-12T16:17:57.100Z,1.40
2022-09-12T16:20:25.301Z,1.10
2022-09-12T16:22:54.667Z,1.30
2022-09-12T16:25:22.669Z,1.50
2022-09-12T16:27:50.721Z,1.33
2022-09-12T16:30:18.907Z,1.00
2022-09-12T16:32:46.885Z,1.08
2022-09-12T16:35:14.847Z,1.20
2022-09-12T16:37:43.351Z,1.20
2022-09-12T16:40:15.329Z,1.40
2022-09-12T16:42:43.872Z,1.30
2022-09-12T16:45:13.031Z,1.10
2022-09-12T16:47:41.126Z,1.88
2022-09-12T16:50:09.807Z,1.52
2022-09-12T16:52:37.844Z,1.58
2022-09-12T16:55:06.855Z,1.50
2022-09-12T16:57:36.226Z,1.20
2022-09-12T17:00:05.150Z,1.27
2022-09-12T17:02:33.125Z,1.30
2022-09-12T17:05:01.234Z,1.15
2022-09-12T17:07:29.490Z,1.10
2022-09-12T17:09:57.745Z,0.98
2022-09-12T17:12:25.855Z,1.00
2022-09-12T17:14:55.257Z,1.15
2022-09-12T17:17:23.292Z,0.90
2022-09-12T17:19:51.272Z,0.90
2022-09-12T17:22:19.209Z,1.10
2022-09-12T17:24:50.026Z,1.02
2022-09-12T17:27:17.962Z,1.00
2022-09-12T17:29:45.941Z,1.10
2022-09-12T17:32:17.504Z,1.40
2022-09-12T17:34:46.127Z,1.40
2022-09-12T17:37:18.722Z,1.27
2022-09-12T17:40:11.450Z,1.10
2022-09-12T17:42:48.906Z,0.95
2022-09-12T17:45:39.483Z,0.98
2022-09-12T17:48:19.864Z,1.02
2022-09-12T17:50:48.096Z,1.13
2022-09-12T17:53:16.245Z,1.13
2022-09-12T17:55:44.659Z,1.00
2022-09-12T17:58:13.430Z,1.00
2022-09-12T18:00:59.318Z,0.90
2022-09-12T18:11:14.017Z,1.00
2022-09-12T18:13:44.857Z,1.20
2022-09-12T18:17:08.801Z,1.00
2022-09-12T18:35:49.670Z,0.98
2022-09-12T18:39:13.336Z,1.20
2022-09-12T20:12:17.946Z,1.33
2022-09-12T20:15:27.166Z,1.40
2022-09-12T20:19:45.628Z,1.30
2022-09-12T20:22:15.768Z,1.30
2022-09-12T20:25:15.938Z,1.20
2022-09-12T20:28:22.137Z,1.17
2022-09-12T20:31:45.004Z,1.35
2022-09-12T20:34:58.326Z,1.35
2022-09-12T20:37:26.559Z,1.60
2022-09-12T20:40:44.807Z,1.30
